NJE645 CYYT-EINN
Flight info
| Callsign | NJE645 |
|---|---|
| Flight time | N/A |
| Altitude | 41000 |
| Route | YYT DCT NICSO DCT 48N050W DCT 50N040W/M086F400 52N030W 54N020W DCT DOGAL DCT BEXET/N0494F450 DCT ERABI ERABI3D |
| Aircraft | C750/M-SBDE3FGHRWXY/S |
Departure
| Time | 2026-04-25 20:48 |
|---|---|
| Airport | St. John's International Airport (CYYT) |
Arrival
| Time | N/A |
|---|---|
| Airport | Shannon Airport (EINN) |
| Time | Latitude | Longitude | Altitude | Speed | Heading |
|---|---|---|---|---|---|
| 2026-04-25 20:38 | 47.61400 | -52.74571 | 449 ft | 0 kts | 30° |
| 2026-04-25 20:44 | 47.61401 | -52.74569 | 449 ft | 0 kts | 28° |
| 2026-04-25 20:44 | 47.61416 | -52.74553 | 449 ft | 8 kts | 35° |
| 2026-04-25 20:44 | 47.61468 | -52.74442 | 445 ft | 14 kts | 74° |
| 2026-04-25 20:44 | 47.61456 | -52.74292 | 441 ft | 15 kts | 112° |
| 2026-04-25 20:45 | 47.61411 | -52.74134 | 435 ft | 18 kts | 109° |
| 2026-04-25 20:45 | 47.61373 | -52.73952 | 428 ft | 7 kts | 123° |
| 2026-04-25 20:45 | 47.61366 | -52.73941 | 428 ft | 2 kts | 168° |
| 2026-04-25 20:45 | 47.61265 | -52.73964 | 433 ft | 16 kts | 189° |
| 2026-04-25 20:46 | 47.61223 | -52.73975 | 435 ft | 2 kts | 344° |
| 2026-04-25 20:46 | 47.61283 | -52.73954 | 431 ft | 7 kts | 58° |
| 2026-04-25 20:46 | 47.61272 | -52.73913 | 430 ft | 9 kts | 126° |
| 2026-04-25 20:46 | 47.61210 | -52.73734 | 425 ft | 27 kts | 119° |
| 2026-04-25 20:47 | 47.61119 | -52.73487 | 417 ft | 24 kts | 120° |
| 2026-04-25 20:47 | 47.61129 | -52.73369 | 412 ft | 10 kts | 55° |
| 2026-04-25 20:47 | 47.61179 | -52.73376 | 412 ft | 8 kts | 315° |
| 2026-04-25 20:47 | 47.61313 | -52.73547 | 414 ft | 60 kts | 317° |
| 2026-04-25 20:48 | 47.61848 | -52.74244 | 431 ft | 139 kts | 321° |
| 2026-04-25 20:48 | 47.62660 | -52.75286 | 912 ft | 172 kts | 321° |
| 2026-04-25 20:48 | 47.63635 | -52.76548 | 1870 ft | 194 kts | 322° |
| 2026-04-25 20:48 | 47.64586 | -52.77771 | 3310 ft | 190 kts | 326° |
| 2026-04-25 20:49 | 47.65607 | -52.79069 | 4358 ft | 203 kts | 327° |
| 2026-04-25 20:49 | 47.66699 | -52.80409 | 5406 ft | 216 kts | 327° |
| 2026-04-25 20:49 | 47.67907 | -52.81852 | 6430 ft | 230 kts | 328° |
| 2026-04-25 20:49 | 47.69178 | -52.83340 | 7403 ft | 246 kts | 328° |
| 2026-04-25 20:50 | 47.70540 | -52.84901 | 8523 ft | 254 kts | 328° |
| 2026-04-25 20:50 | 47.71933 | -52.86479 | 9713 ft | 259 kts | 329° |
| 2026-04-25 20:50 | 47.73384 | -52.88096 | 10601 ft | 273 kts | 329° |
| 2026-04-25 20:50 | 47.74954 | -52.89814 | 11493 ft | 286 kts | 329° |
| 2026-04-25 20:51 | 47.76566 | -52.91552 | 12360 ft | 299 kts | 330° |
| 2026-04-25 20:51 | 47.78413 | -52.93485 | 12279 ft | 341 kts | 330° |
| 2026-04-25 20:51 | 47.80463 | -52.95576 | 12349 ft | 374 kts | 330° |
| 2026-04-25 20:51 | 47.82687 | -52.97803 | 12427 ft | 380 kts | 330° |
| 2026-04-25 20:52 | 47.84814 | -52.99741 | 12392 ft | 338 kts | 338° |
| 2026-04-25 20:52 | 47.85498 | -53.00225 | 12385 ft | 325 kts | 341° |
| 2026-04-25 20:52 | 47.88707 | -53.02111 | 12387 ft | 275 kts | 340° |